»·PEaware :: N321TB KRNO-KRDD

N321TB :: KRNO-KRDD

FLIGHT INFORMATION

Flight Status: Arrived
Operator: Privately registered:
United States
More flights under this callsign
Pilot: Martin K. (31672)
Aircraft: BEECH AIRCRAFT BARON
(BE58)
More flights by this aircraft type
Origin: KRNO Reno/Tahoe Intl
United States
Destination: KRDD Redding Mun
United States
More flights between these airports :: More routes between these airports
Route:
File this flight plan on PilotEdge
Remarks:
Altitude:
(Current/Filed)
10,500ft
Speed:
(Current/Filed)
180kts
Departed: 26-Nov-20 10:23 AM
Arrived: 26-Nov-20 11:15 AM
Distance/Time
Traveled:
131nm/0:52
Distance/Time
To Go:
Arrived

Flight Plot

Page will automatically refresh every two minutes.

Flight plan parsing failed; only flown route is shown


Map Options




Map Legend


Flown Route
Filed Route
Departure Airport
Arrival Airport
Navaid (VOR, NDB)
Fix

Horizontal Profiles

Position Reports

Time Latitude Longitude Heading Altitude Ground
Speed
26-Nov-20 10:18 39.501783 -119.764526 357 4419ft 10kts
26-Nov-20 10:19 39.502587 -119.765721 359 4419ft 21kts
26-Nov-20 10:20 39.509841 -119.765705 5 4419ft 24kts
26-Nov-20 10:21 39.513456 -119.766678 199 4419ft 12kts
26-Nov-20 10:22 39.490656 -119.766831 178 5076ft 122kts
26-Nov-20 10:23 39.501691 -119.747606 5 6166ft 143kts
26-Nov-20 10:24 39.540065 -119.745735 338 7452ft 140kts
26-Nov-20 10:25 39.564730 -119.788654 304 8564ft 145kts
26-Nov-20 10:26 39.585752 -119.834511 308 9778ft 148kts
26-Nov-20 10:27 39.607848 -119.880490 309 10612ft 171kts
26-Nov-20 10:28 39.636605 -119.937197 309 10593ft 196kts
26-Nov-20 10:29 39.667601 -119.997150 309 10515ft 202kts
26-Nov-20 10:30 39.699100 -120.057768 309 10514ft 203kts
26-Nov-20 10:31 39.730746 -120.118604 309 10510ft 204kts
26-Nov-20 10:32 39.762546 -120.179715 309 10514ft 204kts
26-Nov-20 10:33 39.793567 -120.241464 302 10491ft 207kts
26-Nov-20 10:34 39.820031 -120.307373 291 10500ft 209kts
26-Nov-20 10:35 39.835220 -120.380427 288 10518ft 209kts
26-Nov-20 10:36 39.832795 -120.457026 269 10557ft 211kts
26-Nov-20 10:37 39.829909 -120.533942 269 10543ft 212kts
26-Nov-20 10:38 39.828864 -120.610930 288 10490ft 212kts
26-Nov-20 10:39 39.858449 -120.672598 316 10513ft 202kts
26-Nov-20 10:40 39.895468 -120.727002 316 10527ft 201kts
26-Nov-20 10:41 39.932508 -120.781492 317 10523ft 201kts
26-Nov-20 10:42 39.969598 -120.836129 317 10524ft 201kts
26-Nov-20 10:43 40.006538 -120.890759 317 10546ft 200kts
26-Nov-20 10:44 40.042827 -120.945599 317 10541ft 200kts
26-Nov-20 10:45 40.079011 -121.000832 317 10539ft 200kts
26-Nov-20 10:46 40.114368 -121.056934 317 10540ft 200kts
26-Nov-20 10:47 40.149060 -121.114040 317 10541ft 200kts
26-Nov-20 10:48 40.182650 -121.172154 308 10532ft 207kts
26-Nov-20 10:49 40.191902 -121.249278 284 10617ft 215kts
26-Nov-20 10:50 40.202963 -121.324767 288 10600ft 211kts
26-Nov-20 10:51 40.205169 -121.401852 307 10576ft 194kts
26-Nov-20 10:52 40.229720 -121.463869 309 10485ft 193kts
26-Nov-20 10:53 40.251832 -121.527850 305 10480ft 192kts
26-Nov-20 10:54 40.244505 -121.600833 256 10499ft 221kts
26-Nov-20 10:55 40.225106 -121.676648 262 10480ft 218kts
26-Nov-20 10:56 40.207912 -121.753268 262 10155ft 224kts
26-Nov-20 10:57 40.189959 -121.833558 261 9092ft 233kts
26-Nov-20 10:58 40.172006 -121.913358 261 7736ft 218kts
26-Nov-20 10:59 40.155126 -121.988426 261 6812ft 212kts
26-Nov-20 11:00 40.138665 -122.061304 261 5906ft 206kts
26-Nov-20 11:01 40.122596 -122.132227 260 5010ft 201kts
26-Nov-20 11:02 40.111174 -122.199238 289 3748ft 175kts
26-Nov-20 11:03 40.141174 -122.235026 334 2901ft 125kts
26-Nov-20 11:04 40.169822 -122.257210 334 3072ft 138kts
26-Nov-20 11:05 40.205344 -122.283661 334 3057ft 154kts
26-Nov-20 11:06 40.246573 -122.295029 359 2990ft 156kts
26-Nov-20 11:07 40.289422 -122.295095 359 3003ft 151kts
26-Nov-20 11:08 40.330853 -122.295114 359 3010ft 146kts
26-Nov-20 11:09 40.370420 -122.295022 359 2959ft 134kts
26-Nov-20 11:10 40.403862 -122.294983 359 2411ft 110kts
26-Nov-20 11:11 40.434019 -122.294927 358 1838ft 108kts
26-Nov-20 11:12 40.463291 -122.294887 358 1272ft 90kts
26-Nov-20 11:13 40.487121 -122.294886 358 809ft 85kts
26-Nov-20 11:14 40.507713 -122.294904 342 499ft 23kts
26-Nov-20 11:15 40.506409 -122.298490 172 498ft 14kts
26-Nov-20 11:16 40.506254 -122.299078 358 498ft 0kts
26-Nov-20 11:17 40.506254 -122.299078 358 498ft 0kts
26-Nov-20 11:18 40.506254 -122.299078 358 498ft 0kts
26-Nov-20 11:19 40.506254 -122.299078 358 498ft 0kts
26-Nov-20 11:20 40.506254 -122.299078 358 498ft 0kts
26-Nov-20 11:21 40.506254 -122.299078 358 498ft 0kts
26-Nov-20 11:23 40.506254 -122.299078 358 498ft 0kts
26-Nov-20 11:24 40.506254 -122.299078 358 498ft 0kts
26-Nov-20 11:25 40.506254 -122.299078 358 498ft 0kts
26-Nov-20 11:26 40.506254 -122.299078 358 498ft 0kts
26-Nov-20 11:27 40.506254 -122.299078 358 498ft 0kts
26-Nov-20 11:28 40.506254 -122.299078 358 498ft 0kts
26-Nov-20 11:29 40.506254 -122.299078 358 498ft 0kts

Navigation Log

Ident Type
Flight plan parsing failed, navigation log unavailable